Time;durP1;ratioP1;P1;durP2;ratioP2;P2;SDS_P1;SDS_P2;PMS_P1;PMS_P2;Temp;Humidity;BMP_temperature;BMP_pressure;BME280_temperature;BME280_humidity;BME280_pressure;Samples;Min_cycle;Max_cycle;Signal;HPM_P1;HPM_P2
2022/10/26 00:00:22;;;;;;;7.93;6.33;;;;;;;22.05;43.47;95500.34;6138491;28;103571;-78
2022/10/26 00:03:27;;;;;;;7.63;5.70;;;;;;;22.04;43.78;95497.97;6131701;28;103109;-79
2022/10/26 00:06:30;;;;;;;6.40;5.80;;;;;;;22.05;43.69;95496.88;6137754;28;104279;-78
2022/10/26 00:09:37;;;;;;;8.97;7.17;;;;;;;22.03;43.82;95499.84;6138593;28;106509;-78
2022/10/26 00:12:40;;;;;;;6.30;5.63;;;;;;;22.04;43.90;95492.63;6139109;28;104305;-77
2022/10/26 00:15:44;;;;;;;6.10;5.50;;;;;;;22.03;43.91;95499.84;6138275;28;103136;-78
2022/10/26 00:18:47;;;;;;;8.50;6.53;;;;;;;22.03;44.04;95504.38;6142110;28;104986;-77
2022/10/26 00:21:51;;;;;;;6.67;5.70;;;;;;;22.03;43.49;95504.38;6141518;28;103236;-77
2022/10/26 00:24:57;;;;;;;6.07;5.47;;;;;;;22.02;43.77;95500.94;6135962;28;103547;-77
2022/10/26 00:28:00;;;;;;;6.17;5.53;;;;;;;22.02;43.86;95502.81;6141946;28;103314;-78
2022/10/26 00:31:05;;;;;;;7.70;5.43;;;;;;;22.01;43.33;95503.88;6141858;28;104207;-78
2022/10/26 00:34:10;;;;;;;7.30;5.77;;;;;;;22.00;43.50;95511.06;6141918;28;104172;-77
2022/10/26 00:37:13;;;;;;;6.30;5.50;;;;;;;21.99;43.69;95503.38;6135332;28;103220;-78
2022/10/26 00:40:18;;;;;;;5.93;5.00;;;;;;;21.99;44.06;95504.16;6141254;28;104147;-77
2022/10/26 00:43:38;;;;;;;8.73;5.90;;;;;;;21.96;43.55;95495.97;6141384;28;103433;-78
2022/10/26 00:46:41;;;;;;;6.97;4.80;;;;;;;21.98;44.13;95507.91;6138609;28;103410;-79
2022/10/26 00:49:47;;;;;;;5.57;5.00;;;;;;;21.96;43.65;95496.75;6138615;28;106645;-78
2022/10/26 00:52:52;;;;;;;6.17;5.23;;;;;;;21.97;43.82;95498.34;6141739;28;106261;-79
2022/10/26 00:55:57;;;;;;;6.07;5.57;;;;;;;21.97;43.98;95503.66;6141863;28;106319;-78
2022/10/26 00:59:03;;;;;;;5.30;4.70;;;;;;;21.95;43.96;95497.84;6135401;28;103770;-78
2022/10/26 01:02:07;;;;;;;7.17;5.83;;;;;;;21.96;44.04;95488.75;6141149;28;103330;-79
2022/10/26 01:05:11;;;;;;;6.40;5.27;;;;;;;21.94;43.55;95493.59;6141133;28;103225;-78
2022/10/26 01:08:15;;;;;;;5.67;5.17;;;;;;;21.93;43.82;95494.69;6141602;28;106657;-78
2022/10/26 01:11:20;;;;;;;6.00;5.50;;;;;;;21.93;43.85;95494.69;6134099;28;103205;-79
2022/10/26 01:14:27;;;;;;;5.63;5.03;;;;;;;21.93;43.76;95493.88;6140678;28;103635;-78
2022/10/26 01:17:48;;;;;;;5.57;5.03;;;;;;;21.92;44.00;95494.97;6141195;28;103009;-78
2022/10/26 01:21:22;;;;;;;7.00;5.20;;;;;;;21.89;43.66;95499.03;6138125;28;103065;-80
2022/10/26 01:24:54;;;;;;;6.10;5.50;;;;;;;21.83;44.12;95486.84;6132948;28;103294;-78
2022/10/26 01:28:02;;;;;;;7.40;4.90;;;;;;;21.89;43.87;95504.34;6139902;28;103569;-78
2022/10/26 01:31:14;;;;;;;4.97;4.47;;;;;;;21.87;43.47;95498.53;6140766;28;103709;-79
2022/10/26 01:34:25;;;;;;;5.93;4.97;;;;;;;21.86;43.53;95502.28;6134056;28;103362;-79
2022/10/26 01:37:34;;;;;;;5.47;4.73;;;;;;;21.86;43.88;95504.16;6140388;28;103243;-78
2022/10/26 01:40:43;;;;;;;4.83;4.33;;;;;;;21.85;43.85;95499.91;6141128;28;103074;-79
2022/10/26 01:43:57;;;;;;;5.53;4.50;;;;;;;21.84;43.87;95496.44;6136179;28;103129;-78
2022/10/26 01:47:04;;;;;;;5.20;4.70;;;;;;;21.83;43.89;95494.06;6140393;28;105447;-78
2022/10/26 01:50:08;;;;;;;5.27;4.80;;;;;;;21.80;43.79;95490.06;6140402;28;103418;-79
2022/10/26 01:53:12;;;;;;;5.50;4.93;;;;;;;21.81;43.88;95496.97;6124433;28;104419;-77
2022/10/26 01:56:21;;;;;;;6.80;4.83;;;;;;;21.79;43.78;95496.50;6134551;28;103994;-77
2022/10/26 01:59:41;;;;;;;5.37;4.80;;;;;;;21.79;43.60;95499.16;6140174;28;103213;-78
2022/10/26 02:03:07;;;;;;;7.00;5.07;;;;;;;21.77;43.59;95494.13;6140420;28;104095;-77
2022/10/26 02:06:19;;;;;;;5.07;4.57;;;;;;;21.74;43.89;95486.72;6124082;28;104441;-78
2022/10/26 02:09:29;;;;;;;5.27;4.77;;;;;;;21.75;43.34;95500.81;6135838;28;102893;-77
2022/10/26 02:12:41;;;;;;;6.33;4.43;;;;;;;21.75;43.82;95495.50;6140291;28;104958;-78
2022/10/26 02:15:53;;;;;;;5.93;4.93;;;;;;;21.73;43.53;95492.34;6139638;28;103042;-78
2022/10/26 02:19:04;;;;;;;7.03;5.00;;;;;;;21.71;43.63;95497.97;6133446;28;103328;-78
2022/10/26 02:22:14;;;;;;;9.20;4.67;;;;;;;21.71;43.85;95510.50;6140091;28;103116;-78
2022/10/26 02:25:21;;;;;;;6.77;5.10;;;;;;;21.70;43.56;95508.91;6140378;28;103244;-77
2022/10/26 02:28:28;;;;;;;5.63;4.53;;;;;;;21.68;44.03;95509.19;6139776;28;105173;-77
2022/10/26 02:31:33;;;;;;;5.90;5.30;;;;;;;21.70;43.52;95506.25;6132785;28;103589;-77
2022/10/26 02:34:39;;;;;;;6.33;5.20;;;;;;;21.71;43.77;95510.50;6139654;28;104355;-77
2022/10/26 02:37:45;;;;;;;7.10;4.70;;;;;;;21.69;43.67;95515.31;6139660;28;104495;-77
2022/10/26 02:40:51;;;;;;;6.07;5.57;;;;;;;21.69;43.32;95505.47;6135800;28;103466;-78
2022/10/26 02:44:02;;;;;;;6.10;5.00;;;;;;;21.65;43.82;95516.97;6116105;28;103928;-76
2022/10/26 02:47:05;;;;;;;6.73;4.70;;;;;;;21.66;43.78;95513.22;6139277;28;105243;-76
2022/10/26 02:50:11;;;;;;;9.47;5.57;;;;;;;21.64;43.33;95508.19;6139531;28;103392;-76
2022/10/26 02:53:19;;;;;;;6.73;5.30;;;;;;;21.64;43.45;95505.53;6132774;28;104431;-77
2022/10/26 02:56:26;;;;;;;6.90;5.20;;;;;;;21.63;43.51;95514.59;6139543;28;103695;-76
2022/10/26 02:59:35;;;;;;;8.50;4.90;;;;;;;21.65;43.43;95511.63;6138861;28;103614;-77
2022/10/26 03:02:38;;;;;;;6.87;5.30;;;;;;;21.63;43.40;95516.47;6138545;28;103566;-78
2022/10/26 03:05:46;;;;;;;6.73;5.30;;;;;;;21.65;44.03;95522.28;6132499;28;104416;-77
2022/10/26 03:09:36;;;;;;;6.33;5.03;;;;;;;21.65;43.99;95522.28;6138862;28;104315;-76
2022/10/26 03:12:41;;;;;;;8.10;5.07;;;;;;;21.64;44.73;95524.16;6138990;28;103395;-76
2022/10/26 03:15:44;;;;;;;8.03;5.50;;;;;;;21.63;44.41;95527.13;6132598;28;103192;-76
2022/10/26 03:18:47;;;;;;;9.23;6.50;;;;;;;21.65;44.41;95528.41;6138441;28;103050;-77
2022/10/26 03:21:51;;;;;;;11.50;6.00;;;;;;;21.61;44.82;95538.06;6138103;28;103502;-75
2022/10/26 03:24:55;;;;;;;11.90;6.50;;;;;;;21.64;44.06;95536.69;6139640;28;103546;-75
2022/10/26 03:27:59;;;;;;;16.70;14.90;;;;;;;21.62;43.27;95544.19;6132367;28;104547;-77
2022/10/26 03:31:02;;;;;;;13.17;11.43;;;;;;;21.55;42.95;95549.09;6140029;28;106233;-76
2022/10/26 03:34:05;;;;;;;20.43;14.50;;;;;;;21.48;42.09;95541.44;6160881;28;103421;-76
2022/10/26 03:37:12;;;;;;;11.97;9.53;;;;;;;21.43;41.97;95546.88;6163836;28;103665;-75
2022/10/26 03:40:16;;;;;;;12.50;10.43;;;;;;;21.08;42.41;95548.16;6136996;28;103066;-76
2022/10/26 03:43:19;;;;;;;9.33;8.40;;;;;;;21.22;42.23;95546.38;6139387;28;104939;-76
2022/10/26 03:46:22;;;;;;;12.80;9.10;;;;;;;21.25;41.57;95542.34;6144015;28;104218;-78
2022/10/26 03:49:25;;;;;;;9.97;7.50;;;;;;;21.29;42.10;95546.00;6138956;28;106272;-79
2022/10/26 03:52:32;;;;;;;7.30;6.57;;;;;;;21.26;41.59;95550.03;6142322;28;103318;-76
2022/10/26 03:55:35;;;;;;;10.93;6.60;;;;;;;21.31;41.60;95552.59;6143607;28;102947;-75
2022/10/26 03:58:38;;;;;;;10.10;7.17;;;;;;;21.27;41.56;95545.50;6143252;28;104150;-77
2022/10/26 04:01:42;;;;;;;8.33;6.30;;;;;;;21.18;41.56;95548.81;6135931;28;103316;-77
2022/10/26 04:04:45;;;;;;;27.33;24.70;;;;;;;21.17;41.39;95547.22;6143115;28;104169;-77
2022/10/26 04:07:54;;;;;;;13.20;11.80;;;;;;;20.98;41.75;95545.59;6142109;28;103046;-78
2022/10/26 04:10:57;;;;;;;11.90;9.17;;;;;;;21.04;41.46;95560.41;6143183;28;103205;-80
2022/10/26 04:14:06;;;;;;;12.57;10.40;;;;;;;21.20;41.64;95559.16;6136398;28;103138;-76
2022/10/26 04:17:09;;;;;;;11.90;9.77;;;;;;;21.32;42.62;95559.50;6142704;28;102868;-76
2022/10/26 04:20:13;;;;;;;16.47;14.20;;;;;;;21.40;42.57;95561.53;6141939;28;103087;-76
2022/10/26 04:23:19;;;;;;;13.50;10.23;;;;;;;21.28;41.28;95553.19;6139427;28;103081;-77
2022/10/26 04:26:22;;;;;;;11.87;9.60;;;;;;;21.24;41.38;95557.50;6139270;28;103430;-75
2022/10/26 04:29:25;;;;;;;13.43;9.90;;;;;;;21.22;41.77;95562.34;6143114;28;107191;-76
2022/10/26 04:32:29;;;;;;;12.60;9.03;;;;;;;20.93;41.30;95557.88;6143781;28;105014;-76
2022/10/26 04:35:32;;;;;;;12.97;8.00;;;;;;;21.05;41.48;95560.16;6135791;28;103215;-77
2022/10/26 04:38:39;;;;;;;12.10;7.93;;;;;;;21.09;41.13;95557.72;6141876;28;103412;-75
2022/10/26 04:41:42;;;;;;;17.27;7.57;;;;;;;21.11;41.33;95561.66;6142907;28;105983;-76
2022/10/26 04:44:45;;;;;;;9.50;7.53;;;;;;;21.07;40.90;95565.19;6142159;28;103311;-75
2022/10/26 04:48:00;;;;;;;13.07;8.07;;;;;;;21.10;41.31;95569.94;6136178;28;104145;-76
2022/10/26 04:51:03;;;;;;;12.07;7.37;;;;;;;21.11;40.76;95572.31;6141892;28;103265;-76
2022/10/26 04:54:08;;;;;;;9.97;8.10;;;;;;;21.08;40.90;95564.13;6142032;28;103073;-75
2022/10/26 04:57:11;;;;;;;15.97;8.70;;;;;;;21.12;41.00;95581.88;6140048;28;103222;-75
2022/10/26 05:00:14;;;;;;;13.60;7.73;;;;;;;21.10;40.89;95577.94;6138877;28;104327;-75
2022/10/26 05:03:17;;;;;;;11.40;8.40;;;;;;;21.10;40.68;95583.25;6142440;28;104102;-76
2022/10/26 05:06:21;;;;;;;10.80;8.50;;;;;;;21.08;40.98;95585.41;6141877;28;103827;-75
2022/10/26 05:09:25;;;;;;;12.03;7.97;;;;;;;21.06;40.53;95591.00;6136215;28;103844;-75
2022/10/26 05:12:28;;;;;;;8.23;7.37;;;;;;;21.05;40.89;95586.78;6142480;28;106522;-75
2022/10/26 05:15:32;;;;;;;10.60;7.70;;;;;;;21.03;40.50;95593.44;6142411;28;103507;-75
2022/10/26 05:18:35;;;;;;;12.87;7.17;;;;;;;21.05;40.55;95581.44;6142324;28;104145;-76
2022/10/26 05:21:38;;;;;;;12.33;11.00;;;;;;;21.02;40.54;95586.53;6135179;28;103603;-75
2022/10/26 05:24:43;;;;;;;13.27;11.73;;;;;;;21.01;40.69;95583.06;6141760;28;103340;-75
2022/10/26 05:27:46;;;;;;;14.17;9.97;;;;;;;20.95;40.74;95580.75;6142255;28;107126;-76
2022/10/26 05:30:49;;;;;;;13.60;9.13;;;;;;;21.00;40.46;95586.00;6141703;28;103118;-76
2022/10/26 05:33:52;;;;;;;13.93;8.83;;;;;;;21.00;40.44;95601.97;6135543;28;104523;-78
2022/10/26 05:36:55;;;;;;;13.70;8.20;;;;;;;20.91;40.21;95594.63;6142143;28;103875;-76
2022/10/26 05:40:00;;;;;;;14.00;7.93;;;;;;;21.01;40.30;95611.56;6142397;28;106750;-77
2022/10/26 05:43:04;;;;;;;8.83;6.57;;;;;;;20.97;40.46;95619.28;6138943;28;103499;-74
2022/10/26 05:46:07;;;;;;;9.93;7.10;;;;;;;20.98;40.23;95618.22;6138573;28;103242;-75
2022/10/26 05:49:10;;;;;;;11.77;6.73;;;;;;;20.99;40.54;95619.00;6142038;28;104586;-75
2022/10/26 05:52:13;;;;;;;11.37;7.00;;;;;;;20.97;40.68;95623.81;6140600;28;103234;-75
2022/10/26 05:55:19;;;;;;;12.60;7.23;;;;;;;20.93;40.46;95626.25;6134900;28;103153;-76
2022/10/26 05:58:23;;;;;;;12.07;6.73;;;;;;;20.99;40.51;95635.75;6141238;28;103287;-75
2022/10/26 06:01:35;;;;;;;11.77;7.30;;;;;;;21.00;40.25;95633.88;6140925;28;103013;-75
2022/10/26 06:04:46;;;;;;;13.53;7.23;;;;;;;21.33;39.53;95635.63;6141546;28;106429;-75
2022/10/26 06:07:52;;;;;;;9.33;6.40;;;;;;;21.23;39.65;95640.31;6133605;28;103303;-76
2022/10/26 06:10:59;;;;;;;12.23;7.20;;;;;;;21.31;39.80;95643.13;6140928;28;103456;-76
2022/10/26 06:14:03;;;;;;;14.27;7.57;;;;;;;21.39;39.81;95647.03;6141828;28;103962;-76
2022/10/26 06:17:19;;;;;;;12.80;8.03;;;;;;;21.51;40.02;95642.09;6138423;28;103882;-75
2022/10/26 06:20:38;;;;;;;9.10;7.70;;;;;;;21.61;39.65;95643.81;6140702;28;104733;-75
2022/10/26 06:23:51;;;;;;;12.53;8.23;;;;;;;21.74;39.27;95653.75;6140324;28;103094;-75
2022/10/26 06:27:03;;;;;;;11.40;8.17;;;;;;;21.80;39.45;95645.38;6140525;28;103112;-76
2022/10/26 06:30:10;;;;;;;12.77;7.80;;;;;;;21.90;39.11;95652.47;6133871;28;103086;-77
2022/10/26 06:33:15;;;;;;;14.30;9.07;;;;;;;21.95;39.10;95652.41;6140311;28;103635;-75
2022/10/26 06:36:34;;;;;;;18.30;9.63;;;;;;;22.05;38.81;95654.13;6140272;28;103302;-75
2022/10/26 06:39:42;;;;;;;8.57;7.40;;;;;;;22.15;38.70;95648.63;6137193;28;103283;-76
2022/10/26 06:42:47;;;;;;;12.97;8.00;;;;;;;22.26;38.80;95658.03;6137260;28;106404;-75
2022/10/26 06:46:03;;;;;;;14.97;9.13;;;;;;;22.32;38.68;95650.75;6141083;28;103256;-76
2022/10/26 06:49:18;;;;;;;12.97;8.30;;;;;;;22.38;38.98;95660.25;6140006;28;103565;-76
2022/10/26 06:52:29;;;;;;;17.30;9.77;;;;;;;22.48;38.70;95664.63;6134042;28;104962;-76
2022/10/26 06:55:39;;;;;;;14.13;8.73;;;;;;;22.53;38.95;95662.69;6139845;28;103357;-77
2022/10/26 06:58:49;;;;;;;15.30;8.50;;;;;;;22.60;38.97;95663.09;6140963;28;102988;-77
2022/10/26 07:01:52;;;;;;;14.87;8.67;;;;;;;22.68;38.72;95658.97;6140518;28;102955;-78
2022/10/26 07:04:55;;;;;;;13.67;7.80;;;;;;;22.72;38.97;95670.66;6134046;28;104060;-76
2022/10/26 07:07:59;;;;;;;11.30;8.30;;;;;;;22.80;38.98;95671.84;6139162;28;103967;-76
2022/10/26 07:11:03;;;;;;;25.07;8.43;;;;;;;22.84;39.47;95670.16;6139852;28;103253;-76
2022/10/26 07:14:08;;;;;;;16.80;8.60;;;;;;;22.86;39.40;95671.47;6134447;28;103106;-78
2022/10/26 07:17:12;;;;;;;17.70;9.43;;;;;;;22.88;39.39;95668.50;6139322;28;104019;-77
2022/10/26 07:20:15;;;;;;;14.20;8.50;;;;;;;22.96;39.56;95673.13;6139435;28;103053;-76
2022/10/26 07:23:18;;;;;;;12.57;8.30;;;;;;;23.01;39.55;95678.38;6140281;28;105056;-77
2022/10/26 07:26:22;;;;;;;16.30;9.43;;;;;;;23.06;39.46;95672.97;6132080;28;103032;-76
2022/10/26 07:29:27;;;;;;;12.67;9.00;;;;;;;23.09;39.31;95674.25;6139319;28;103518;-76
2022/10/26 07:32:30;;;;;;;16.20;9.20;;;;;;;23.11;39.61;95670.19;6139440;28;104909;-76
2022/10/26 07:35:33;;;;;;;11.60;8.60;;;;;;;23.17;39.58;95666.31;6139660;28;103020;-76
2022/10/26 07:38:37;;;;;;;14.50;9.20;;;;;;;23.19;39.75;95661.50;6133659;28;104308;-76
2022/10/26 07:41:40;;;;;;;12.60;9.27;;;;;;;23.22;39.74;95663.56;6139704;28;104105;-76
2022/10/26 07:44:45;;;;;;;14.33;9.17;;;;;;;23.26;39.60;95661.88;6139686;28;104404;-76
2022/10/26 07:47:49;;;;;;;14.00;9.80;;;;;;;23.30;39.61;95654.88;6136725;28;103670;-76
2022/10/26 07:50:52;;;;;;;15.30;9.40;;;;;;;23.28;39.78;95649.00;6136111;28;103570;-77
2022/10/26 07:53:55;;;;;;;12.33;8.87;;;;;;;23.34;39.62;95662.28;6139213;28;104606;-75
2022/10/26 07:56:58;;;;;;;16.90;9.00;;;;;;;23.35;39.74;95653.19;6138378;28;103546;-77
2022/10/26 08:00:05;;;;;;;12.43;8.97;;;;;;;23.38;39.74;95657.94;6132092;28;103340;-76
2022/10/26 08:03:08;;;;;;;15.00;9.30;;;;;;;23.40;40.06;95653.09;6138557;28;103203;-76
2022/10/26 08:06:12;;;;;;;14.40;8.93;;;;;;;23.41;40.14;95644.78;6138995;28;103857;-77
2022/10/26 08:09:15;;;;;;;10.90;8.60;;;;;;;23.45;40.18;95659.13;6139036;28;103151;-76
2022/10/26 08:12:18;;;;;;;10.33;8.40;;;;;;;23.44;40.27;95654.88;6132179;28;103373;-76
2022/10/26 08:15:23;;;;;;;13.10;9.20;;;;;;;23.39;40.39;95638.16;6138999;28;104219;-76
2022/10/26 08:18:26;;;;;;;11.10;8.70;;;;;;;23.48;39.83;95653.16;6138656;28;103377;-75
2022/10/26 08:21:29;;;;;;;15.13;8.40;;;;;;;23.47;40.05;95648.91;6137688;28;103100;-80
2022/10/26 08:24:50;;;;;;;9.40;8.40;;;;;;;23.49;40.17;95645.94;6134930;28;103236;-75
2022/10/26 08:28:04;;;;;;;10.13;8.40;;;;;;;23.51;40.40;95646.44;6137618;28;103184;-75
2022/10/26 08:31:08;;;;;;;9.70;7.97;;;;;;;23.50;40.61;95648.31;6141942;28;103354;-75
2022/10/26 08:34:11;;;;;;;9.43;8.53;;;;;;;23.51;40.08;95641.09;6140024;28;102816;-77
2022/10/26 08:37:17;;;;;;;9.70;8.70;;;;;;;23.53;40.06;95641.59;6143091;28;103002;-76
2022/10/26 08:40:24;;;;;;;8.53;7.70;;;;;;;23.52;40.12;95643.47;6142759;28;105160;-75
2022/10/26 08:43:33;;;;;;;9.37;7.80;;;;;;;23.52;40.13;95640.81;6142926;28;104390;-75
2022/10/26 08:46:44;;;;;;;8.50;7.60;;;;;;;23.50;40.76;95642.97;6136904;28;103114;-75
2022/10/26 08:49:53;;;;;;;10.53;7.37;;;;;;;23.51;40.55;95646.44;6142634;28;103060;-74
2022/10/26 08:53:03;;;;;;;8.10;7.23;;;;;;;23.50;40.41;95642.19;6142174;28;103675;-75
2022/10/26 08:56:13;;;;;;;10.70;7.60;;;;;;;23.50;40.27;95653.66;6138928;28;103087;-75
2022/10/26 08:59:25;;;;;;;7.93;6.50;;;;;;;23.37;40.44;95633.13;6141432;28;105503;-75
2022/10/26 09:02:30;;;;;;;7.57;6.80;;;;;;;23.49;40.21;95651.28;6141753;28;103520;-75
2022/10/26 09:05:45;;;;;;;8.40;7.00;;;;;;;23.45;40.75;95645.75;6142288;28;104133;-75
2022/10/26 09:09:07;;;;;;;8.40;7.10;;;;;;;23.44;40.34;95649.53;6135179;28;103009;-77
2022/10/26 09:12:17;;;;;;;7.40;6.70;;;;;;;23.47;40.25;95645.44;6142366;28;103305;-76
2022/10/26 09:15:28;;;;;;;7.83;6.93;;;;;;;23.45;40.49;95647.63;6142314;28;104124;-75
2022/10/26 09:18:47;;;;;;;7.07;6.27;;;;;;;23.52;40.56;95648.81;6138997;28;103132;-77
2022/10/26 09:21:59;;;;;;;7.40;6.63;;;;;;;23.52;40.71;95640.00;6138835;28;106185;-77
2022/10/26 09:25:15;;;;;;;6.83;6.23;;;;;;;23.57;40.54;95647.91;6141936;28;103307;-76
2022/10/26 09:28:19;;;;;;;7.20;6.50;;;;;;;23.55;40.19;95644.75;6141044;28;103345;-76
2022/10/26 09:31:24;;;;;;;7.97;7.13;;;;;;;23.53;40.16;95637.06;6133585;28;103579;-76
2022/10/26 09:34:36;;;;;;;6.80;6.10;;;;;;;23.54;40.32;95641.31;6141818;28;106071;-76
2022/10/26 09:37:49;;;;;;;7.40;6.70;;;;;;;23.54;40.21;95643.19;6141803;28;107652;-75
2022/10/26 09:40:58;;;;;;;6.80;6.00;;;;;;;23.56;40.24;95647.13;6141284;28;103463;-76
2022/10/26 09:44:13;;;;;;;7.30;6.60;;;;;;;23.59;40.10;95645.75;6136495;28;103224;-75
2022/10/26 09:47:28;;;;;;;7.37;6.23;;;;;;;23.65;40.35;95638.38;6141017;28;102663;-75
2022/10/26 09:50:35;;;;;;;6.67;6.17;;;;;;;23.69;40.26;95634.03;6141368;28;104099;-75
2022/10/26 09:53:38;;;;;;;7.20;5.93;;;;;;;23.69;40.22;95628.66;6135222;28;106070;-76
2022/10/26 09:56:44;;;;;;;6.27;5.67;;;;;;;23.72;39.84;95631.56;6141526;28;103415;-76
2022/10/26 09:59:48;;;;;;;5.70;5.30;;;;;;;23.68;40.06;95625.22;6140689;28;103276;-76
2022/10/26 10:02:54;;;;;;;6.20;5.67;;;;;;;23.68;40.00;95621.75;6140989;28;105340;-77
2022/10/26 10:06:16;;;;;;;7.53;6.07;;;;;;;23.66;40.44;95613.25;6135184;28;105990;-76
2022/10/26 10:09:21;;;;;;;6.57;5.97;;;;;;;23.64;40.48;95618.91;6140284;28;103251;-77
2022/10/26 10:12:25;;;;;;;7.23;5.70;;;;;;;23.70;40.03;95609.69;6141347;28;106497;-76
2022/10/26 10:15:28;;;;;;;6.10;5.60;;;;;;;23.67;40.01;95610.28;6137390;28;103188;-77
2022/10/26 10:18:33;;;;;;;6.70;6.10;;;;;;;23.67;40.12;95609.47;6137569;28;103062;-76
2022/10/26 10:21:42;;;;;;;6.17;5.57;;;;;;;23.66;40.30;95600.69;6141003;28;106545;-76
2022/10/26 10:24:55;;;;;;;5.13;4.73;;;;;;;23.66;40.24;95608.69;6141400;28;106660;-76
2022/10/26 10:27:58;;;;;;;6.07;5.47;;;;;;;23.67;40.18;95602.25;6133226;28;103534;-77
2022/10/26 10:31:03;;;;;;;6.30;4.90;;;;;;;23.66;40.30;95600.69;6141223;28;105236;-76
2022/10/26 10:34:16;;;;;;;6.30;5.80;;;;;;;23.62;40.29;95594.38;6139948;28;104062;-76
2022/10/26 10:37:27;;;;;;;5.43;4.93;;;;;;;23.62;40.31;95596.25;6140768;28;106541;-76
2022/10/26 10:40:32;;;;;;;5.77;5.30;;;;;;;23.63;40.29;95592.47;6134215;28;102923;-78
2022/10/26 10:43:35;;;;;;;5.87;5.37;;;;;;;23.58;40.47;95588.84;6140311;28;104526;-77
2022/10/26 10:46:39;;;;;;;6.00;5.40;;;;;;;23.55;40.32;95586.00;6140153;28;103740;-76
2022/10/26 10:49:43;;;;;;;5.57;5.00;;;;;;;23.57;40.45;95587.25;6136833;28;103763;-76
2022/10/26 10:52:47;;;;;;;5.80;4.33;;;;;;;23.53;40.53;95580.16;6136716;28;103187;-76
2022/10/26 10:56:23;;;;;;;5.60;4.80;;;;;;;23.50;40.59;95573.50;6140262;28;103304;-76
2022/10/26 11:00:00;;;;;;;5.10;4.60;;;;;;;23.47;40.66;95570.66;6120033;28;103481;-77
2022/10/26 11:03:15;;;;;;;4.97;4.47;;;;;;;23.44;40.53;95568.59;6132191;28;103524;-76
2022/10/26 11:06:21;;;;;;;4.47;4.10;;;;;;;23.40;40.57;95562.28;6138620;28;104185;-77
2022/10/26 11:09:28;;;;;;;4.93;4.43;;;;;;;23.36;40.26;95555.97;6139470;28;103859;-79
2022/10/26 11:12:41;;;;;;;5.13;4.67;;;;;;;23.32;40.44;95549.63;6135764;28;103382;-78
2022/10/26 11:15:48;;;;;;;4.93;4.50;;;;;;;23.36;40.77;95555.97;6139369;28;103415;-77
2022/10/26 11:18:56;;;;;;;4.70;4.07;;;;;;;23.35;40.63;95557.81;6140167;28;105587;-79
2022/10/26 11:22:04;;;;;;;4.60;4.20;;;;;;;23.32;40.74;95561.09;6139328;28;103235;-77
2022/10/26 11:25:16;;;;;;;5.43;4.93;;;;;;;23.31;40.52;95554.19;6133481;28;104502;-76
2022/10/26 11:28:31;;;;;;;4.40;4.00;;;;;;;23.32;40.18;95554.97;6139856;28;105760;-76
2022/10/26 11:31:41;;;;;;;4.93;4.53;;;;;;;23.28;40.35;95552.88;6139064;28;103511;-76
2022/10/26 11:34:50;;;;;;;4.87;4.27;;;;;;;23.19;40.27;95544.00;6136677;28;103214;-76
2022/10/26 11:38:03;;;;;;;3.83;3.53;;;;;;;23.22;40.69;95546.06;6134798;28;103297;-77
2022/10/26 11:41:15;;;;;;;4.23;3.93;;;;;;;23.20;40.61;95542.13;6139637;28;103615;-77
2022/10/26 11:44:24;;;;;;;4.17;3.80;;;;;;;23.18;40.97;95544.28;6139387;28;104101;-77
2022/10/26 11:47:35;;;;;;;4.90;4.10;;;;;;;23.10;40.40;95540.44;6133158;28;103037;-76
2022/10/26 11:50:43;;;;;;;4.83;4.37;;;;;;;23.14;40.84;95543.31;6139213;28;103369;-76
2022/10/26 11:53:51;;;;;;;6.40;4.20;;;;;;;23.10;40.62;95545.78;6139497;28;106415;-77
2022/10/26 11:56:57;;;;;;;4.13;3.73;;;;;;;23.13;40.47;95544.41;6139028;28;104125;-77
2022/10/26 12:00:04;;;;;;;4.57;4.17;;;;;;;23.10;40.94;95535.13;6133159;28;104172;-77
2022/10/26 12:03:13;;;;;;;4.03;3.70;;;;;;;23.07;41.14;95534.94;6139143;28;104371;-77
2022/10/26 12:06:20;;;;;;;3.53;3.23;;;;;;;23.03;41.17;95537.41;6141723;28;103247;-77
2022/10/26 12:09:29;;;;;;;4.33;3.63;;;;;;;23.03;41.07;95526.75;6136294;28;105497;-77
2022/10/26 12:12:44;;;;;;;4.20;3.80;;;;;;;23.01;40.72;95520.88;6143448;28;103129;-76
2022/10/26 12:15:54;;;;;;;3.57;3.27;;;;;;;23.02;41.34;95533.16;6143186;28;103793;-76
2022/10/26 12:19:13;;;;;;;4.80;3.90;;;;;;;23.00;40.78;95528.09;6142798;28;103370;-76
2022/10/26 12:22:18;;;;;;;3.87;3.57;;;;;;;22.99;40.81;95523.84;6136429;28;102972;-76
2022/10/26 12:25:22;;;;;;;4.27;3.87;;;;;;;22.97;40.68;95527.91;6143343;28;105378;-76
2022/10/26 12:28:42;;;;;;;4.50;4.10;;;;;;;22.95;40.88;95522.09;6142530;28;102863;-76
2022/10/26 12:31:45;;;;;;;4.53;3.90;;;;;;;22.94;40.91;95528.53;6140740;28;103312;-77
2022/10/26 12:35:00;;;;;;;3.93;3.60;;;;;;;22.93;40.92;95521.59;6139083;28;104074;-76
2022/10/26 12:38:48;;;;;;;3.10;2.80;;;;;;;22.94;41.08;95523.19;6143223;28;102890;-76
2022/10/26 12:41:57;;;;;;;3.70;3.20;;;;;;;22.91;40.97;95519.22;6141834;28;103106;-76
2022/10/26 12:45:19;;;;;;;3.90;3.07;;;;;;;22.88;40.67;95516.38;6136298;28;103964;-76
2022/10/26 12:48:24;;;;;;;3.37;3.07;;;;;;;22.89;40.98;95516.06;6142741;28;106423;-76
2022/10/26 12:51:44;;;;;;;3.07;2.70;;;;;;;22.85;40.67;95512.44;6142504;28;106113;-75
2022/10/26 12:55:13;;;;;;;4.17;3.30;;;;;;;22.88;40.54;95519.06;6136949;28;103643;-78
2022/10/26 12:58:54;;;;;;;3.30;2.70;;;;;;;22.85;40.92;95517.78;6141934;28;103308;-75
2022/10/26 13:02:36;;;;;;;4.70;3.00;;;;;;;22.84;40.43;95529.50;6142183;28;103747;-75
2022/10/26 13:06:11;;;;;;;3.07;2.80;;;;;;;22.83;40.47;95529.81;6109076;28;104474;-75
2022/10/26 13:09:17;;;;;;;3.43;3.13;;;;;;;22.83;40.55;95532.47;6140643;28;103391;-77
2022/10/26 13:12:23;;;;;;;3.50;3.20;;;;;;;22.80;40.21;95527.75;6141436;28;103166;-75
2022/10/26 13:15:28;;;;;;;2.57;2.37;;;;;;;22.81;40.14;95526.66;6140765;28;104186;-76
2022/10/26 13:18:43;;;;;;;2.70;2.50;;;;;;;22.81;40.58;95529.31;6135935;28;103443;-76
2022/10/26 13:21:48;;;;;;;4.30;2.60;;;;;;;22.72;39.90;95520.44;6142092;28;107569;-75
2022/10/26 13:24:54;;;;;;;3.70;2.40;;;;;;;22.80;40.41;95533.06;6141211;28;103345;-77
2022/10/26 13:28:01;;;;;;;2.40;2.20;;;;;;;22.79;39.85;95536.84;6141682;28;106221;-76
2022/10/26 13:31:10;;;;;;;3.53;2.47;;;;;;;22.78;39.75;95540.59;6135377;28;103411;-76
2022/10/26 13:34:20;;;;;;;2.53;2.30;;;;;;;22.78;39.72;95544.06;6141331;28;103414;-76
2022/10/26 13:37:27;;;;;;;2.20;2.00;;;;;;;22.76;39.64;95538.22;6141951;28;103212;-76
2022/10/26 13:40:30;;;;;;;2.47;2.27;;;;;;;22.77;39.52;95542.47;6135244;28;103088;-76
2022/10/26 13:43:37;;;;;;;3.20;2.17;;;;;;;22.76;39.62;95540.91;6141478;28;103277;-76
2022/10/26 13:46:41;;;;;;;3.40;2.40;;;;;;;22.63;39.73;95526.47;6140977;28;103966;-77
2022/10/26 13:49:47;;;;;;;2.23;2.10;;;;;;;22.74;39.40;95550.28;6141609;28;104234;-77
2022/10/26 13:52:54;;;;;;;2.10;1.90;;;;;;;22.72;39.29;95547.13;6135181;28;103358;-76
2022/10/26 13:56:02;;;;;;;2.37;2.17;;;;;;;22.70;39.49;95548.22;6141443;28;106412;-75
2022/10/26 13:59:10;;;;;;;2.03;1.80;;;;;;;22.70;39.32;95550.88;6141455;28;104222;-77
2022/10/26 14:02:19;;;;;;;2.97;1.90;;;;;;;22.69;39.68;95557.31;6138598;28;103296;-78
2022/10/26 14:05:24;;;;;;;2.33;2.13;;;;;;;22.67;39.52;95548.78;6137452;28;106708;-77
2022/10/26 14:08:27;;;;;;;2.93;2.67;;;;;;;22.67;39.68;95554.13;6140748;28;103362;-77
2022/10/26 14:11:34;;;;;;;2.27;2.07;;;;;;;22.68;39.47;95554.91;6140376;28;103671;-77
2022/10/26 14:14:38;;;;;;;2.90;2.60;;;;;;;22.67;39.46;95551.44;6135334;28;104649;-77
2022/10/26 14:17:41;;;;;;;2.33;2.00;;;;;;;22.68;38.83;95563.72;6140488;28;105415;-76
2022/10/26 14:20:54;;;;;;;2.20;1.87;;;;;;;22.69;39.35;95556.53;6140296;28;103397;-76
2022/10/26 14:23:58;;;;;;;2.30;2.10;;;;;;;22.65;38.84;95556.31;6140953;28;106177;-76
2022/10/26 14:27:02;;;;;;;3.30;2.10;;;;;;;22.63;39.03;95557.69;6133525;28;103946;-77
2022/10/26 14:30:21;;;;;;;2.27;2.07;;;;;;;22.62;38.68;95553.44;6140320;28;103097;-77